sensor_id;sensor_type;location;lat;lon;timestamp;temperature;humidity
18884;DHT22;9574;47.282;9.640;2024-03-29T00:01:24;3.90;99.90
18884;DHT22;9574;47.282;9.640;2024-03-29T00:03:50;3.90;99.90
18884;DHT22;9574;47.282;9.640;2024-03-29T00:06:16;3.90;99.90
18884;DHT22;9574;47.282;9.640;2024-03-29T00:08:42;3.90;99.90
18884;DHT22;9574;47.282;9.640;2024-03-29T00:11:08;3.90;99.90
18884;DHT22;9574;47.282;9.640;2024-03-29T00:13:35;3.90;99.90
18884;DHT22;9574;47.282;9.640;2024-03-29T00:16:01;4.00;99.90
18884;DHT22;9574;47.282;9.640;2024-03-29T00:18:27;4.10;99.90
18884;DHT22;9574;47.282;9.640;2024-03-29T00:20:53;4.10;99.90
18884;DHT22;9574;47.282;9.640;2024-03-29T00:23:19;4.10;99.90
18884;DHT22;9574;47.282;9.640;2024-03-29T00:25:45;4.10;99.90
18884;DHT22;9574;47.282;9.640;2024-03-29T00:28:11;4.10;99.90
18884;DHT22;9574;47.282;9.640;2024-03-29T00:30:39;4.20;99.90
18884;DHT22;9574;47.282;9.640;2024-03-29T00:33:05;4.20;99.90
18884;DHT22;9574;47.282;9.640;2024-03-29T00:35:31;4.20;99.90
18884;DHT22;9574;47.282;9.640;2024-03-29T00:37:57;4.30;99.90
18884;DHT22;9574;47.282;9.640;2024-03-29T00:40:23;4.30;99.90
18884;DHT22;9574;47.282;9.640;2024-03-29T00:42:49;4.30;99.90
18884;DHT22;9574;47.282;9.640;2024-03-29T00:45:15;4.40;99.90
18884;DHT22;9574;47.282;9.640;2024-03-29T00:47:42;4.50;99.90
18884;DHT22;9574;47.282;9.640;2024-03-29T00:50:09;4.60;99.90
18884;DHT22;9574;47.282;9.640;2024-03-29T00:52:35;4.60;99.90
18884;DHT22;9574;47.282;9.640;2024-03-29T00:55:01;4.60;99.90
18884;DHT22;9574;47.282;9.640;2024-03-29T00:57:28;4.50;99.90
18884;DHT22;9574;47.282;9.640;2024-03-29T00:59:54;4.50;99.90
18884;DHT22;9574;47.282;9.640;2024-03-29T01:02:20;4.50;99.90
18884;DHT22;9574;47.282;9.640;2024-03-29T01:04:47;4.60;99.90
18884;DHT22;9574;47.282;9.640;2024-03-29T01:07:13;4.50;99.90
18884;DHT22;9574;47.282;9.640;2024-03-29T01:09:39;4.50;99.90
18884;DHT22;9574;47.282;9.640;2024-03-29T01:12:05;4.60;99.90
18884;DHT22;9574;47.282;9.640;2024-03-29T01:14:31;4.60;99.90
18884;DHT22;9574;47.282;9.640;2024-03-29T01:16:57;4.70;99.90
18884;DHT22;9574;47.282;9.640;2024-03-29T01:19:23;4.70;99.90
18884;DHT22;9574;47.282;9.640;2024-03-29T01:21:50;4.80;99.90
18884;DHT22;9574;47.282;9.640;2024-03-29T01:24:16;4.80;99.90
18884;DHT22;9574;47.282;9.640;2024-03-29T01:26:42;4.80;99.90
18884;DHT22;9574;47.282;9.640;2024-03-29T01:29:08;4.70;99.90
18884;DHT22;9574;47.282;9.640;2024-03-29T01:31:34;4.70;99.90
18884;DHT22;9574;47.282;9.640;2024-03-29T01:34:00;4.70;99.90
18884;DHT22;9574;47.282;9.640;2024-03-29T01:36:26;4.80;99.90
18884;DHT22;9574;47.282;9.640;2024-03-29T01:38:53;4.70;99.90
18884;DHT22;9574;47.282;9.640;2024-03-29T01:41:20;4.70;99.90
18884;DHT22;9574;47.282;9.640;2024-03-29T01:43:46;4.70;99.90
18884;DHT22;9574;47.282;9.640;2024-03-29T01:46:13;4.80;99.90
18884;DHT22;9574;47.282;9.640;2024-03-29T01:48:40;4.90;99.90
18884;DHT22;9574;47.282;9.640;2024-03-29T01:51:09;5.00;99.90
18884;DHT22;9574;47.282;9.640;2024-03-29T01:53:38;5.10;99.90
18884;DHT22;9574;47.282;9.640;2024-03-29T01:56:07;5.20;99.90
18884;DHT22;9574;47.282;9.640;2024-03-29T01:58:35;5.20;99.90
18884;DHT22;9574;47.282;9.640;2024-03-29T02:01:03;5.30;99.90
18884;DHT22;9574;47.282;9.640;2024-03-29T02:03:31;5.30;99.90
18884;DHT22;9574;47.282;9.640;2024-03-29T02:05:59;5.40;99.90
18884;DHT22;9574;47.282;9.640;2024-03-29T02:08:28;5.50;99.90
18884;DHT22;9574;47.282;9.640;2024-03-29T02:10:55;5.40;99.90
18884;DHT22;9574;47.282;9.640;2024-03-29T02:13:25;5.20;99.90
18884;DHT22;9574;47.282;9.640;2024-03-29T02:15:51;5.20;99.90
18884;DHT22;9574;47.282;9.640;2024-03-29T02:18:18;5.20;99.90
18884;DHT22;9574;47.282;9.640;2024-03-29T02:20:45;5.20;99.90
18884;DHT22;9574;47.282;9.640;2024-03-29T02:23:17;5.20;99.90
18884;DHT22;9574;47.282;9.640;2024-03-29T02:25:46;5.20;99.90
18884;DHT22;9574;47.282;9.640;2024-03-29T02:28:13;5.30;99.90
18884;DHT22;9574;47.282;9.640;2024-03-29T02:30:40;5.40;99.90
18884;DHT22;9574;47.282;9.640;2024-03-29T02:33:07;5.40;99.90
18884;DHT22;9574;47.282;9.640;2024-03-29T02:35:34;5.40;99.90
18884;DHT22;9574;47.282;9.640;2024-03-29T02:38:01;5.40;99.90
18884;DHT22;9574;47.282;9.640;2024-03-29T02:40:28;5.50;99.90
18884;DHT22;9574;47.282;9.640;2024-03-29T02:42:56;5.50;99.90
18884;DHT22;9574;47.282;9.640;2024-03-29T02:45:23;5.50;99.90
18884;DHT22;9574;47.282;9.640;2024-03-29T02:47:49;5.60;99.90
18884;DHT22;9574;47.282;9.640;2024-03-29T02:50:16;5.60;99.90
18884;DHT22;9574;47.282;9.640;2024-03-29T02:52:43;5.70;99.90
18884;DHT22;9574;47.282;9.640;2024-03-29T02:55:10;5.80;99.90
18884;DHT22;9574;47.282;9.640;2024-03-29T02:57:36;6.10;99.90
18884;DHT22;9574;47.282;9.640;2024-03-29T03:00:05;6.40;99.90
18884;DHT22;9574;47.282;9.640;2024-03-29T03:02:32;6.60;99.90
18884;DHT22;9574;47.282;9.640;2024-03-29T03:04:58;6.70;99.90
18884;DHT22;9574;47.282;9.640;2024-03-29T03:07:25;6.80;99.90
18884;DHT22;9574;47.282;9.640;2024-03-29T03:10:09;7.00;99.90
18884;DHT22;9574;47.282;9.640;2024-03-29T03:12:54;7.20;99.90
18884;DHT22;9574;47.282;9.640;2024-03-29T03:15:22;7.40;99.90
18884;DHT22;9574;47.282;9.640;2024-03-29T03:17:49;7.60;99.90
18884;DHT22;9574;47.282;9.640;2024-03-29T03:20:16;7.60;99.90
18884;DHT22;9574;47.282;9.640;2024-03-29T03:22:42;7.60;99.90
18884;DHT22;9574;47.282;9.640;2024-03-29T03:25:09;7.80;99.90
18884;DHT22;9574;47.282;9.640;2024-03-29T03:27:35;7.70;99.90
18884;DHT22;9574;47.282;9.640;2024-03-29T03:30:03;7.70;99.90
18884;DHT22;9574;47.282;9.640;2024-03-29T03:32:31;7.70;99.90
18884;DHT22;9574;47.282;9.640;2024-03-29T03:34:57;7.80;99.90
18884;DHT22;9574;47.282;9.640;2024-03-29T03:37:23;7.80;99.90
18884;DHT22;9574;47.282;9.640;2024-03-29T03:39:50;7.70;99.90
18884;DHT22;9574;47.282;9.640;2024-03-29T03:42:16;7.70;99.90
18884;DHT22;9574;47.282;9.640;2024-03-29T03:44:43;7.70;99.90
18884;DHT22;9574;47.282;9.640;2024-03-29T03:47:09;7.70;99.90
18884;DHT22;9574;47.282;9.640;2024-03-29T03:49:37;7.50;99.90
18884;DHT22;9574;47.282;9.640;2024-03-29T03:52:04;7.40;99.90
18884;DHT22;9574;47.282;9.640;2024-03-29T03:54:31;7.10;99.90
18884;DHT22;9574;47.282;9.640;2024-03-29T03:56:57;7.00;99.90
18884;DHT22;9574;47.282;9.640;2024-03-29T03:59:24;7.00;99.90
18884;DHT22;9574;47.282;9.640;2024-03-29T04:01:50;7.20;99.90
18884;DHT22;9574;47.282;9.640;2024-03-29T04:04:17;7.50;99.90
18884;DHT22;9574;47.282;9.640;2024-03-29T04:06:45;7.50;99.90
18884;DHT22;9574;47.282;9.640;2024-03-29T04:09:14;7.50;99.90
18884;DHT22;9574;47.282;9.640;2024-03-29T04:11:41;7.40;99.90
18884;DHT22;9574;47.282;9.640;2024-03-29T04:14:08;7.40;99.90
18884;DHT22;9574;47.282;9.640;2024-03-29T04:16:34;7.60;99.90
18884;DHT22;9574;47.282;9.640;2024-03-29T04:19:01;7.60;99.90
18884;DHT22;9574;47.282;9.640;2024-03-29T04:21:27;7.70;99.90
18884;DHT22;9574;47.282;9.640;2024-03-29T04:23:56;7.80;99.90
18884;DHT22;9574;47.282;9.640;2024-03-29T04:26:22;8.10;99.90
18884;DHT22;9574;47.282;9.640;2024-03-29T04:28:49;8.00;99.90
18884;DHT22;9574;47.282;9.640;2024-03-29T04:31:15;8.00;99.90
18884;DHT22;9574;47.282;9.640;2024-03-29T04:33:42;8.10;99.90
18884;DHT22;9574;47.282;9.640;2024-03-29T04:36:08;8.20;99.90
18884;DHT22;9574;47.282;9.640;2024-03-29T04:38:35;8.40;99.90
18884;DHT22;9574;47.282;9.640;2024-03-29T04:41:03;8.50;99.90
18884;DHT22;9574;47.282;9.640;2024-03-29T04:43:30;8.70;99.90
18884;DHT22;9574;47.282;9.640;2024-03-29T04:46:06;8.70;99.90
18884;DHT22;9574;47.282;9.640;2024-03-29T04:48:35;8.70;99.90
18884;DHT22;9574;47.282;9.640;2024-03-29T04:51:02;8.80;99.90
18884;DHT22;9574;47.282;9.640;2024-03-29T04:53:29;8.90;99.90
18884;DHT22;9574;47.282;9.640;2024-03-29T04:55:56;9.10;99.90
18884;DHT22;9574;47.282;9.640;2024-03-29T04:58:25;9.20;99.90
18884;DHT22;9574;47.282;9.640;2024-03-29T05:00:52;9.10;99.90
18884;DHT22;9574;47.282;9.640;2024-03-29T05:03:20;9.10;99.90
18884;DHT22;9574;47.282;9.640;2024-03-29T05:05:49;9.30;99.90
18884;DHT22;9574;47.282;9.640;2024-03-29T05:08:16;9.40;99.90
18884;DHT22;9574;47.282;9.640;2024-03-29T05:10:44;9.60;99.90
18884;DHT22;9574;47.282;9.640;2024-03-29T05:13:11;9.90;99.90
18884;DHT22;9574;47.282;9.640;2024-03-29T05:15:40;10.00;99.90
18884;DHT22;9574;47.282;9.640;2024-03-29T05:18:07;10.10;99.90
18884;DHT22;9574;47.282;9.640;2024-03-29T05:20:34;10.00;99.90
18884;DHT22;9574;47.282;9.640;2024-03-29T05:23:02;10.20;99.90
18884;DHT22;9574;47.282;9.640;2024-03-29T05:25:29;10.30;99.90
18884;DHT22;9574;47.282;9.640;2024-03-29T05:27:56;10.40;99.90
18884;DHT22;9574;47.282;9.640;2024-03-29T05:30:22;10.50;99.90
18884;DHT22;9574;47.282;9.640;2024-03-29T05:32:51;10.60;99.90
18884;DHT22;9574;47.282;9.640;2024-03-29T05:35:18;10.70;99.90
18884;DHT22;9574;47.282;9.640;2024-03-29T05:37:45;10.80;99.90
18884;DHT22;9574;47.282;9.640;2024-03-29T05:40:16;10.80;99.90
18884;DHT22;9574;47.282;9.640;2024-03-29T05:42:43;10.90;99.90
18884;DHT22;9574;47.282;9.640;2024-03-29T05:45:24;11.20;99.90
18884;DHT22;9574;47.282;9.640;2024-03-29T05:47:54;11.60;99.90
18884;DHT22;9574;47.282;9.640;2024-03-29T05:50:22;11.70;99.90
18884;DHT22;9574;47.282;9.640;2024-03-29T05:52:49;11.70;99.90
18884;DHT22;9574;47.282;9.640;2024-03-29T05:55:16;11.70;99.90
18884;DHT22;9574;47.282;9.640;2024-03-29T05:57:43;11.90;99.90
18884;DHT22;9574;47.282;9.640;2024-03-29T06:00:12;12.00;99.90
18884;DHT22;9574;47.282;9.640;2024-03-29T06:02:40;12.10;99.90
18884;DHT22;9574;47.282;9.640;2024-03-29T06:05:09;12.30;99.90
18884;DHT22;9574;47.282;9.640;2024-03-29T06:07:36;12.80;99.90
18884;DHT22;9574;47.282;9.640;2024-03-29T06:10:04;13.00;99.90
18884;DHT22;9574;47.282;9.640;2024-03-29T06:12:32;13.10;99.90
18884;DHT22;9574;47.282;9.640;2024-03-29T06:14:59;13.00;99.90
18884;DHT22;9574;47.282;9.640;2024-03-29T06:17:43;12.80;99.90
18884;DHT22;9574;47.282;9.640;2024-03-29T06:20:13;12.70;99.90
18884;DHT22;9574;47.282;9.640;2024-03-29T06:22:40;12.70;99.90
18884;DHT22;9574;47.282;9.640;2024-03-29T06:25:07;12.60;99.90
18884;DHT22;9574;47.282;9.640;2024-03-29T06:27:35;12.60;99.90
18884;DHT22;9574;47.282;9.640;2024-03-29T06:30:04;12.40;99.90
18884;DHT22;9574;47.282;9.640;2024-03-29T06:32:32;12.30;99.90
18884;DHT22;9574;47.282;9.640;2024-03-29T06:34:59;12.40;99.90
18884;DHT22;9574;47.282;9.640;2024-03-29T06:37:28;12.70;99.90
18884;DHT22;9574;47.282;9.640;2024-03-29T06:39:55;13.00;99.90
18884;DHT22;9574;47.282;9.640;2024-03-29T06:42:22;13.40;99.90
18884;DHT22;9574;47.282;9.640;2024-03-29T06:44:49;13.80;99.90
18884;DHT22;9574;47.282;9.640;2024-03-29T06:47:17;14.00;99.90
18884;DHT22;9574;47.282;9.640;2024-03-29T06:49:44;14.00;99.90
18884;DHT22;9574;47.282;9.640;2024-03-29T06:52:12;13.90;99.90
18884;DHT22;9574;47.282;9.640;2024-03-29T06:54:40;13.80;99.90
18884;DHT22;9574;47.282;9.640;2024-03-29T06:59:44;13.80;99.90
18884;DHT22;9574;47.282;9.640;2024-03-29T07:02:11;13.90;99.90
18884;DHT22;9574;47.282;9.640;2024-03-29T07:04:38;14.00;99.90
18884;DHT22;9574;47.282;9.640;2024-03-29T07:07:05;14.00;99.90
18884;DHT22;9574;47.282;9.640;2024-03-29T07:09:32;14.00;99.90
18884;DHT22;9574;47.282;9.640;2024-03-29T07:12:00;13.90;99.90
18884;DHT22;9574;47.282;9.640;2024-03-29T07:14:27;13.90;99.90
18884;DHT22;9574;47.282;9.640;2024-03-29T07:16:56;13.80;99.90
18884;DHT22;9574;47.282;9.640;2024-03-29T07:19:23;13.80;99.90
18884;DHT22;9574;47.282;9.640;2024-03-29T07:21:51;13.80;99.90
18884;DHT22;9574;47.282;9.640;2024-03-29T07:24:19;13.60;99.90
18884;DHT22;9574;47.282;9.640;2024-03-29T07:26:46;13.50;99.90
18884;DHT22;9574;47.282;9.640;2024-03-29T07:29:15;13.30;99.90
18884;DHT22;9574;47.282;9.640;2024-03-29T07:31:42;13.10;99.90
18884;DHT22;9574;47.282;9.640;2024-03-29T07:34:09;13.00;99.90
18884;DHT22;9574;47.282;9.640;2024-03-29T07:36:37;12.90;99.90
18884;DHT22;9574;47.282;9.640;2024-03-29T07:39:05;12.90;99.90
18884;DHT22;9574;47.282;9.640;2024-03-29T07:41:32;13.10;99.90
18884;DHT22;9574;47.282;9.640;2024-03-29T07:43:59;13.30;99.90
18884;DHT22;9574;47.282;9.640;2024-03-29T07:46:32;13.70;99.90
18884;DHT22;9574;47.282;9.640;2024-03-29T07:48:59;14.00;99.90
18884;DHT22;9574;47.282;9.640;2024-03-29T07:51:27;14.20;99.90
18884;DHT22;9574;47.282;9.640;2024-03-29T07:53:54;14.30;99.90
18884;DHT22;9574;47.282;9.640;2024-03-29T07:56:21;14.40;99.90
18884;DHT22;9574;47.282;9.640;2024-03-29T07:58:50;14.40;99.90
18884;DHT22;9574;47.282;9.640;2024-03-29T08:01:19;14.40;99.90
18884;DHT22;9574;47.282;9.640;2024-03-29T08:03:49;14.40;99.90
18884;DHT22;9574;47.282;9.640;2024-03-29T08:06:17;14.40;99.90
18884;DHT22;9574;47.282;9.640;2024-03-29T08:08:45;14.40;99.90
18884;DHT22;9574;47.282;9.640;2024-03-29T08:11:12;14.40;99.90
18884;DHT22;9574;47.282;9.640;2024-03-29T08:13:39;14.40;99.90
18884;DHT22;9574;47.282;9.640;2024-03-29T08:16:07;14.30;99.90
18884;DHT22;9574;47.282;9.640;2024-03-29T08:18:34;14.30;99.90
18884;DHT22;9574;47.282;9.640;2024-03-29T08:21:03;14.30;99.90
18884;DHT22;9574;47.282;9.640;2024-03-29T08:23:36;14.20;99.90
18884;DHT22;9574;47.282;9.640;2024-03-29T08:26:04;14.20;99.90
18884;DHT22;9574;47.282;9.640;2024-03-29T08:28:31;14.30;99.90
18884;DHT22;9574;47.282;9.640;2024-03-29T08:30:59;14.30;99.90
18884;DHT22;9574;47.282;9.640;2024-03-29T08:33:26;14.30;99.90
18884;DHT22;9574;47.282;9.640;2024-03-29T08:35:53;14.30;99.90
18884;DHT22;9574;47.282;9.640;2024-03-29T08:38:22;14.40;99.90
18884;DHT22;9574;47.282;9.640;2024-03-29T08:40:49;14.50;99.90
18884;DHT22;9574;47.282;9.640;2024-03-29T08:43:17;14.60;99.90
18884;DHT22;9574;47.282;9.640;2024-03-29T08:45:44;14.70;99.90
18884;DHT22;9574;47.282;9.640;2024-03-29T08:48:11;14.80;99.90
18884;DHT22;9574;47.282;9.640;2024-03-29T08:50:39;15.00;99.90
18884;DHT22;9574;47.282;9.640;2024-03-29T08:53:06;15.10;99.90
18884;DHT22;9574;47.282;9.640;2024-03-29T08:55:35;15.30;99.90
18884;DHT22;9574;47.282;9.640;2024-03-29T08:58:05;15.50;99.90
18884;DHT22;9574;47.282;9.640;2024-03-29T09:00:32;15.90;99.90
18884;DHT22;9574;47.282;9.640;2024-03-29T09:02:59;16.30;99.90
18884;DHT22;9574;47.282;9.640;2024-03-29T09:05:27;16.60;99.90
18884;DHT22;9574;47.282;9.640;2024-03-29T09:07:54;16.70;99.90
18884;DHT22;9574;47.282;9.640;2024-03-29T09:10:22;16.80;99.90
18884;DHT22;9574;47.282;9.640;2024-03-29T09:12:51;16.90;99.90
18884;DHT22;9574;47.282;9.640;2024-03-29T09:15:18;17.20;99.90
18884;DHT22;9574;47.282;9.640;2024-03-29T09:17:45;17.30;99.90
18884;DHT22;9574;47.282;9.640;2024-03-29T09:20:12;17.50;99.90
18884;DHT22;9574;47.282;9.640;2024-03-29T09:22:39;17.90;99.90
18884;DHT22;9574;47.282;9.640;2024-03-29T09:25:07;18.10;99.90
18884;DHT22;9574;47.282;9.640;2024-03-29T09:27:39;18.30;99.90
18884;DHT22;9574;47.282;9.640;2024-03-29T09:30:11;18.20;99.90
18884;DHT22;9574;47.282;9.640;2024-03-29T09:32:38;18.20;99.90
18884;DHT22;9574;47.282;9.640;2024-03-29T09:35:05;18.20;99.90
18884;DHT22;9574;47.282;9.640;2024-03-29T09:37:32;18.30;99.90
18884;DHT22;9574;47.282;9.640;2024-03-29T09:40:02;18.40;99.90
18884;DHT22;9574;47.282;9.640;2024-03-29T09:42:31;18.50;99.90
18884;DHT22;9574;47.282;9.640;2024-03-29T09:44:59;18.70;99.90
18884;DHT22;9574;47.282;9.640;2024-03-29T09:47:31;18.90;99.90
18884;DHT22;9574;47.282;9.640;2024-03-29T09:49:59;18.80;99.90
18884;DHT22;9574;47.282;9.640;2024-03-29T09:52:26;18.90;99.90
18884;DHT22;9574;47.282;9.640;2024-03-29T09:54:55;18.90;99.90
18884;DHT22;9574;47.282;9.640;2024-03-29T09:57:22;18.90;99.90
18884;DHT22;9574;47.282;9.640;2024-03-29T09:59:55;19.00;99.90
18884;DHT22;9574;47.282;9.640;2024-03-29T10:02:22;19.10;99.90
18884;DHT22;9574;47.282;9.640;2024-03-29T10:04:53;19.10;99.90
18884;DHT22;9574;47.282;9.640;2024-03-29T10:07:23;19.20;99.80
18884;DHT22;9574;47.282;9.640;2024-03-29T10:09:50;19.30;99.90
18884;DHT22;9574;47.282;9.640;2024-03-29T10:12:18;19.30;99.90
18884;DHT22;9574;47.282;9.640;2024-03-29T10:14:45;19.40;99.90
18884;DHT22;9574;47.282;9.640;2024-03-29T10:17:18;19.30;99.90
18884;DHT22;9574;47.282;9.640;2024-03-29T10:19:45;19.30;99.90
18884;DHT22;9574;47.282;9.640;2024-03-29T10:22:14;19.40;99.90
18884;DHT22;9574;47.282;9.640;2024-03-29T10:24:41;19.30;99.90
18884;DHT22;9574;47.282;9.640;2024-03-29T10:27:08;19.30;99.50
18884;DHT22;9574;47.282;9.640;2024-03-29T10:29:35;19.40;99.60
18884;DHT22;9574;47.282;9.640;2024-03-29T10:32:02;19.40;99.30
18884;DHT22;9574;47.282;9.640;2024-03-29T10:34:30;19.30;99.90
18884;DHT22;9574;47.282;9.640;2024-03-29T10:37:00;19.30;99.90
18884;DHT22;9574;47.282;9.640;2024-03-29T10:39:30;19.30;99.90
18884;DHT22;9574;47.282;9.640;2024-03-29T10:41:59;19.30;99.90
18884;DHT22;9574;47.282;9.640;2024-03-29T10:44:28;19.40;99.50
18884;DHT22;9574;47.282;9.640;2024-03-29T10:46:56;19.40;99.60
18884;DHT22;9574;47.282;9.640;2024-03-29T10:49:24;19.40;99.90
18884;DHT22;9574;47.282;9.640;2024-03-29T10:51:53;19.40;99.90
18884;DHT22;9574;47.282;9.640;2024-03-29T10:54:22;19.50;99.70
18884;DHT22;9574;47.282;9.640;2024-03-29T10:56:56;19.50;99.50
18884;DHT22;9574;47.282;9.640;2024-03-29T10:59:31;19.60;98.60
18884;DHT22;9574;47.282;9.640;2024-03-29T11:02:07;19.70;99.20
18884;DHT22;9574;47.282;9.640;2024-03-29T11:04:39;19.60;99.90
18884;DHT22;9574;47.282;9.640;2024-03-29T11:07:13;19.60;99.90
18884;DHT22;9574;47.282;9.640;2024-03-29T11:09:41;19.60;99.90
18884;DHT22;9574;47.282;9.640;2024-03-29T11:12:11;19.60;99.70
18884;DHT22;9574;47.282;9.640;2024-03-29T11:14:42;19.70;99.10
18884;DHT22;9574;47.282;9.640;2024-03-29T11:17:12;20.10;99.20
18884;DHT22;9574;47.282;9.640;2024-03-29T11:19:40;20.70;98.20
18884;DHT22;9574;47.282;9.640;2024-03-29T11:22:08;21.20;97.90
18884;DHT22;9574;47.282;9.640;2024-03-29T11:24:35;21.70;97.90
18884;DHT22;9574;47.282;9.640;2024-03-29T11:27:08;21.90;96.90
18884;DHT22;9574;47.282;9.640;2024-03-29T11:29:41;22.10;96.70
18884;DHT22;9574;47.282;9.640;2024-03-29T11:32:11;22.10;96.40
18884;DHT22;9574;47.282;9.640;2024-03-29T11:34:44;22.00;96.10
18884;DHT22;9574;47.282;9.640;2024-03-29T11:37:11;21.80;95.80
18884;DHT22;9574;47.282;9.640;2024-03-29T11:39:39;22.00;95.80
18884;DHT22;9574;47.282;9.640;2024-03-29T11:42:07;22.10;96.70
18884;DHT22;9574;47.282;9.640;2024-03-29T11:44:34;21.80;96.10
18884;DHT22;9574;47.282;9.640;2024-03-29T11:47:04;21.40;95.90
18884;DHT22;9574;47.282;9.640;2024-03-29T11:49:33;21.30;95.90
18884;DHT22;9574;47.282;9.640;2024-03-29T11:52:04;21.40;96.20
18884;DHT22;9574;47.282;9.640;2024-03-29T11:54:40;21.30;96.30
18884;DHT22;9574;47.282;9.640;2024-03-29T11:57:07;21.20;95.20
18884;DHT22;9574;47.282;9.640;2024-03-29T11:59:34;21.10;95.50
18884;DHT22;9574;47.282;9.640;2024-03-29T12:02:04;20.90;95.60
18884;DHT22;9574;47.282;9.640;2024-03-29T12:04:33;20.90;95.80
18884;DHT22;9574;47.282;9.640;2024-03-29T12:07:00;20.90;96.10
18884;DHT22;9574;47.282;9.640;2024-03-29T12:09:28;20.90;96.00
18884;DHT22;9574;47.282;9.640;2024-03-29T12:11:57;20.80;95.90
18884;DHT22;9574;47.282;9.640;2024-03-29T12:14:26;20.80;96.60
18884;DHT22;9574;47.282;9.640;2024-03-29T12:16:55;21.00;96.80
18884;DHT22;9574;47.282;9.640;2024-03-29T12:19:24;21.50;97.20
18884;DHT22;9574;47.282;9.640;2024-03-29T12:21:53;21.80;95.10
18884;DHT22;9574;47.282;9.640;2024-03-29T12:24:20;21.90;95.60
18884;DHT22;9574;47.282;9.640;2024-03-29T12:26:48;21.80;95.00
18884;DHT22;9574;47.282;9.640;2024-03-29T12:29:15;21.60;95.20
18884;DHT22;9574;47.282;9.640;2024-03-29T12:31:42;21.50;95.50
18884;DHT22;9574;47.282;9.640;2024-03-29T12:34:09;21.40;95.70
18884;DHT22;9574;47.282;9.640;2024-03-29T12:36:38;21.40;95.70
18884;DHT22;9574;47.282;9.640;2024-03-29T12:39:05;21.30;95.80
18884;DHT22;9574;47.282;9.640;2024-03-29T12:41:32;21.30;94.50
18884;DHT22;9574;47.282;9.640;2024-03-29T12:44:01;21.30;94.30
18884;DHT22;9574;47.282;9.640;2024-03-29T12:46:28;21.30;94.90
18884;DHT22;9574;47.282;9.640;2024-03-29T12:48:59;21.20;94.60
18884;DHT22;9574;47.282;9.640;2024-03-29T12:51:27;21.30;95.20
18884;DHT22;9574;47.282;9.640;2024-03-29T12:54:00;21.10;94.40
18884;DHT22;9574;47.282;9.640;2024-03-29T12:56:29;21.00;96.10
18884;DHT22;9574;47.282;9.640;2024-03-29T12:58:56;20.90;96.00
18884;DHT22;9574;47.282;9.640;2024-03-29T13:01:23;20.90;95.30
18884;DHT22;9574;47.282;9.640;2024-03-29T13:03:50;20.90;94.10
18884;DHT22;9574;47.282;9.640;2024-03-29T13:06:17;20.80;94.80
18884;DHT22;9574;47.282;9.640;2024-03-29T13:08:44;20.90;94.30
18884;DHT22;9574;47.282;9.640;2024-03-29T13:11:12;20.90;93.90
18884;DHT22;9574;47.282;9.640;2024-03-29T13:13:39;20.80;93.80
18884;DHT22;9574;47.282;9.640;2024-03-29T13:16:06;20.80;94.60
18884;DHT22;9574;47.282;9.640;2024-03-29T13:18:33;20.80;94.20
18884;DHT22;9574;47.282;9.640;2024-03-29T13:21:00;20.80;93.50
18884;DHT22;9574;47.282;9.640;2024-03-29T13:23:28;20.80;93.70
18884;DHT22;9574;47.282;9.640;2024-03-29T13:25:55;20.80;94.40
18884;DHT22;9574;47.282;9.640;2024-03-29T13:28:24;20.80;94.50
18884;DHT22;9574;47.282;9.640;2024-03-29T13:30:51;20.80;92.40
18884;DHT22;9574;47.282;9.640;2024-03-29T13:33:18;20.90;93.50
18884;DHT22;9574;47.282;9.640;2024-03-29T13:35:46;20.90;94.00
18884;DHT22;9574;47.282;9.640;2024-03-29T13:38:13;20.80;94.10
18884;DHT22;9574;47.282;9.640;2024-03-29T13:40:40;20.80;93.10
18884;DHT22;9574;47.282;9.640;2024-03-29T13:43:08;20.70;92.90
18884;DHT22;9574;47.282;9.640;2024-03-29T13:45:36;20.70;93.90
18884;DHT22;9574;47.282;9.640;2024-03-29T13:48:04;20.70;93.30
18884;DHT22;9574;47.282;9.640;2024-03-29T13:50:31;20.70;92.80
18884;DHT22;9574;47.282;9.640;2024-03-29T13:52:58;20.70;93.20
18884;DHT22;9574;47.282;9.640;2024-03-29T13:55:25;20.60;93.40
18884;DHT22;9574;47.282;9.640;2024-03-29T13:57:52;20.60;90.90
18884;DHT22;9574;47.282;9.640;2024-03-29T14:00:20;20.60;90.90
18884;DHT22;9574;47.282;9.640;2024-03-29T14:02:49;20.70;92.60
18884;DHT22;9574;47.282;9.640;2024-03-29T14:05:16;20.70;92.20
18884;DHT22;9574;47.282;9.640;2024-03-29T14:07:43;20.60;92.00
18884;DHT22;9574;47.282;9.640;2024-03-29T14:10:10;20.60;91.70
18884;DHT22;9574;47.282;9.640;2024-03-29T14:12:37;20.60;91.90
18884;DHT22;9574;47.282;9.640;2024-03-29T14:15:05;20.60;92.00
18884;DHT22;9574;47.282;9.640;2024-03-29T14:17:33;20.60;92.00
18884;DHT22;9574;47.282;9.640;2024-03-29T14:20:01;20.50;91.80
18884;DHT22;9574;47.282;9.640;2024-03-29T14:22:29;20.50;91.90
18884;DHT22;9574;47.282;9.640;2024-03-29T14:24:59;20.50;92.20
18884;DHT22;9574;47.282;9.640;2024-03-29T14:27:26;20.50;92.30
18884;DHT22;9574;47.282;9.640;2024-03-29T14:29:53;20.50;91.30
18884;DHT22;9574;47.282;9.640;2024-03-29T14:32:20;20.60;92.00
18884;DHT22;9574;47.282;9.640;2024-03-29T14:34:47;20.50;91.10
18884;DHT22;9574;47.282;9.640;2024-03-29T14:37:16;20.50;91.10
18884;DHT22;9574;47.282;9.640;2024-03-29T14:39:43;20.50;91.00
18884;DHT22;9574;47.282;9.640;2024-03-29T14:42:11;20.50;90.30
18884;DHT22;9574;47.282;9.640;2024-03-29T14:44:40;20.50;90.90
18884;DHT22;9574;47.282;9.640;2024-03-29T14:47:07;20.50;91.00
18884;DHT22;9574;47.282;9.640;2024-03-29T14:49:35;20.50;90.00
18884;DHT22;9574;47.282;9.640;2024-03-29T14:52:02;20.50;90.40
18884;DHT22;9574;47.282;9.640;2024-03-29T14:54:31;20.50;90.10
18884;DHT22;9574;47.282;9.640;2024-03-29T14:56:58;20.50;90.10
18884;DHT22;9574;47.282;9.640;2024-03-29T14:59:25;20.50;90.10
18884;DHT22;9574;47.282;9.640;2024-03-29T15:01:55;20.50;90.70
18884;DHT22;9574;47.282;9.640;2024-03-29T15:04:22;20.40;90.80
18884;DHT22;9574;47.282;9.640;2024-03-29T15:06:49;20.40;90.90
18884;DHT22;9574;47.282;9.640;2024-03-29T15:09:17;20.40;91.10
18884;DHT22;9574;47.282;9.640;2024-03-29T15:11:45;20.40;91.50
18884;DHT22;9574;47.282;9.640;2024-03-29T15:14:12;20.40;91.50
18884;DHT22;9574;47.282;9.640;2024-03-29T15:16:39;20.40;90.90
18884;DHT22;9574;47.282;9.640;2024-03-29T15:19:06;20.60;91.20
18884;DHT22;9574;47.282;9.640;2024-03-29T15:21:33;20.80;90.80
18884;DHT22;9574;47.282;9.640;2024-03-29T15:24:03;20.90;91.10
18884;DHT22;9574;47.282;9.640;2024-03-29T15:26:30;20.90;90.40
18884;DHT22;9574;47.282;9.640;2024-03-29T15:29:00;20.90;91.50
18884;DHT22;9574;47.282;9.640;2024-03-29T15:31:34;20.90;90.40
18884;DHT22;9574;47.282;9.640;2024-03-29T15:34:01;21.00;91.10
18884;DHT22;9574;47.282;9.640;2024-03-29T15:36:29;21.10;91.10
18884;DHT22;9574;47.282;9.640;2024-03-29T15:38:56;21.10;90.80
18884;DHT22;9574;47.282;9.640;2024-03-29T15:41:30;21.30;90.00
18884;DHT22;9574;47.282;9.640;2024-03-29T15:44:00;21.30;90.40
18884;DHT22;9574;47.282;9.640;2024-03-29T15:46:27;21.40;90.20
18884;DHT22;9574;47.282;9.640;2024-03-29T15:48:55;21.30;90.00
18884;DHT22;9574;47.282;9.640;2024-03-29T15:51:22;21.30;90.30
18884;DHT22;9574;47.282;9.640;2024-03-29T15:53:50;21.40;90.70
18884;DHT22;9574;47.282;9.640;2024-03-29T15:56:18;21.30;91.60
18884;DHT22;9574;47.282;9.640;2024-03-29T15:58:45;21.40;90.50